createdAt,value
2019-04-06T00:02:27.209Z,20.85
2019-04-06T00:04:55.680Z,21.62
2019-04-06T00:07:24.285Z,20.82
2019-04-06T00:09:52.852Z,22.00
2019-04-06T00:12:21.556Z,21.40
2019-04-06T00:14:50.097Z,20.70
2019-04-06T00:17:18.790Z,21.37
2019-04-06T00:19:47.325Z,21.73
2019-04-06T00:22:15.859Z,20.80
2019-04-06T00:24:44.607Z,20.00
2019-04-06T00:27:13.400Z,18.10
2019-04-06T00:29:42.371Z,21.48
2019-04-06T00:32:12.615Z,20.60
2019-04-06T00:34:41.227Z,18.20
2019-04-06T00:37:09.841Z,20.77
2019-04-06T00:39:38.345Z,21.05
2019-04-06T00:42:07.025Z,20.92
2019-04-06T00:44:35.569Z,20.92
2019-04-06T00:47:04.187Z,20.23
2019-04-06T00:49:32.790Z,21.27
2019-04-06T00:52:07.115Z,21.65
2019-04-06T00:54:35.725Z,19.90
2019-04-06T00:57:04.482Z,20.50
2019-04-06T00:59:33.072Z,20.40
2019-04-06T01:02:01.697Z,20.52
2019-04-06T01:04:30.233Z,20.75
2019-04-06T01:06:58.948Z,19.75
2019-04-06T01:09:27.580Z,20.25
2019-04-06T01:11:57.588Z,20.62
2019-04-06T01:14:26.125Z,20.02
2019-04-06T01:16:54.734Z,19.52
2019-04-06T01:19:23.340Z,21.57
2019-04-06T01:21:51.933Z,20.65
2019-04-06T01:24:20.497Z,20.23
2019-04-06T01:26:49.112Z,21.68
2019-04-06T01:29:17.709Z,20.30
2019-04-06T01:31:46.235Z,19.57
2019-04-06T01:34:14.846Z,20.70
2019-04-06T01:36:43.447Z,18.95
2019-04-06T01:39:11.990Z,21.85
2019-04-06T01:41:40.672Z,20.17
2019-04-06T01:44:09.480Z,19.87
2019-04-06T01:46:38.013Z,21.27
2019-04-06T01:49:06.688Z,19.70
2019-04-06T01:51:35.227Z,19.55
2019-04-06T01:54:03.690Z,19.55
2019-04-06T01:56:32.394Z,25.12
2019-04-06T01:59:00.948Z,28.07
2019-04-06T02:01:31.125Z,26.00
2019-04-06T02:03:59.862Z,23.70
2019-04-06T02:06:28.520Z,26.52
2019-04-06T02:08:57.123Z,28.65
2019-04-06T02:11:25.736Z,29.20
2019-04-06T02:13:54.333Z,29.67
2019-04-06T02:16:22.960Z,29.50
2019-04-06T02:18:51.497Z,28.85
2019-04-06T02:21:20.067Z,28.62
2019-04-06T02:23:48.815Z,30.43
2019-04-06T02:26:17.376Z,28.38
2019-04-06T02:28:45.994Z,27.62
2019-04-06T02:31:18.928Z,29.32
2019-04-06T02:33:57.920Z,26.62
2019-04-06T02:36:44.476Z,26.10
2019-04-06T02:39:30.818Z,28.12
2019-04-06T02:42:07.190Z,28.17
2019-04-06T02:44:35.696Z,25.10
2019-04-06T02:47:04.567Z,28.85
2019-04-06T02:49:33.172Z,30.70
2019-04-06T02:52:01.708Z,30.43
2019-04-06T02:54:30.260Z,27.80
2019-04-06T02:56:58.939Z,28.38
2019-04-06T02:59:27.592Z,28.20
2019-04-06T03:01:56.227Z,26.12
2019-04-06T03:04:24.918Z,30.88
2019-04-06T03:06:53.455Z,31.12
2019-04-06T03:09:22.133Z,30.45
2019-04-06T03:11:50.772Z,28.52
2019-04-06T03:14:19.385Z,29.00
2019-04-06T03:16:48.019Z,31.30
2019-04-06T03:19:16.695Z,28.07
2019-04-06T03:21:45.244Z,29.48
2019-04-06T03:24:13.782Z,30.20
2019-04-06T03:26:42.499Z,29.50
2019-04-06T03:29:12.774Z,27.60
2019-04-06T03:31:41.418Z,28.50
2019-04-06T03:34:10.043Z,26.73
2019-04-06T03:36:38.671Z,28.67
2019-04-06T03:39:07.713Z,28.12
2019-04-06T03:41:36.266Z,31.85
2019-04-06T03:44:05.326Z,29.10
2019-04-06T03:46:34.154Z,28.15
2019-04-06T03:49:02.967Z,28.52
2019-04-06T03:51:31.446Z,30.92
2019-04-06T03:54:01.321Z,29.27
2019-04-06T03:56:29.810Z,28.07
2019-04-06T03:58:58.678Z,28.42
2019-04-06T04:01:27.611Z,28.55
2019-04-06T04:03:57.827Z,26.80
2019-04-06T04:06:26.343Z,28.42
2019-04-06T04:08:54.953Z,28.55
2019-04-06T04:11:23.496Z,28.07
2019-04-06T04:13:53.429Z,27.30
2019-04-06T04:16:22.079Z,26.35
2019-04-06T04:18:50.619Z,25.43
2019-04-06T04:21:19.154Z,24.55
2019-04-06T04:23:47.786Z,24.67
2019-04-06T04:26:16.363Z,25.70
2019-04-06T04:28:44.879Z,26.65
2019-04-06T04:31:13.488Z,26.95
2019-04-06T04:33:42.213Z,24.65
2019-04-06T04:36:10.774Z,22.93
2019-04-06T04:38:39.345Z,23.35
2019-04-06T04:41:07.949Z,23.90
2019-04-06T04:43:36.628Z,25.00
2019-04-06T04:46:05.332Z,22.10
2019-04-06T04:48:33.978Z,24.02
2019-04-06T04:51:02.641Z,24.85
2019-04-06T04:53:31.283Z,26.02
2019-04-06T04:55:59.773Z,23.95
2019-04-06T04:58:28.365Z,24.18
2019-04-06T05:00:56.974Z,24.35
2019-04-06T05:03:25.596Z,24.63
2019-04-06T05:05:54.360Z,38.20
2019-04-06T05:08:23.005Z,41.00
2019-04-06T05:10:51.575Z,35.88
2019-04-06T05:13:20.179Z,32.60
2019-04-06T05:16:11.976Z,28.00
2019-04-06T05:18:42.205Z,25.65
2019-04-06T05:21:11.801Z,24.07
2019-04-06T05:23:40.873Z,30.25
2019-04-06T05:26:09.715Z,28.70
2019-04-06T05:28:38.451Z,26.27
2019-04-06T05:31:08.561Z,26.20
2019-04-06T05:33:37.218Z,24.75
2019-04-06T05:36:06.437Z,25.20
2019-04-06T05:38:35.227Z,25.92
2019-04-06T05:41:04.942Z,23.22
2019-04-06T05:43:33.509Z,28.80
2019-04-06T05:46:02.131Z,28.23
2019-04-06T05:48:30.640Z,27.42
2019-04-06T05:50:59.327Z,26.97
2019-04-06T05:53:28.052Z,28.73
2019-04-06T05:55:56.634Z,29.80
2019-04-06T05:58:25.248Z,26.97
2019-04-06T06:00:53.898Z,26.60
2019-04-06T06:03:22.439Z,25.23
2019-04-06T06:05:51.052Z,24.77
2019-04-06T06:08:19.668Z,24.10
2019-04-06T06:10:48.577Z,23.73
2019-04-06T06:13:17.280Z,24.90
2019-04-06T06:15:45.890Z,25.15
2019-04-06T06:18:25.360Z,23.27
2019-04-06T06:20:44.685Z,26.27
2019-04-06T06:23:13.403Z,24.43
2019-04-06T06:25:42.168Z,23.67
2019-04-06T06:28:15.078Z,23.55
2019-04-06T06:30:41.105Z,27.13
2019-04-06T06:33:10.046Z,26.27
2019-04-06T06:35:39.576Z,25.92
2019-04-06T06:38:08.677Z,24.12
2019-04-06T06:40:37.161Z,27.75
2019-04-06T06:43:05.860Z,25.32
2019-04-06T06:45:34.757Z,24.90
2019-04-06T06:48:03.334Z,24.90
2019-04-06T06:50:34.252Z,25.55
2019-04-06T06:53:03.131Z,24.85
2019-04-06T06:55:31.781Z,27.73
2019-04-06T06:58:00.321Z,25.57
2019-04-06T07:00:28.970Z,23.65
2019-04-06T07:02:57.581Z,21.25
2019-04-06T07:05:26.200Z,24.20
2019-04-06T07:07:54.898Z,23.32
2019-04-06T07:10:23.468Z,23.70
2019-04-06T07:12:52.088Z,24.82
2019-04-06T07:15:20.699Z,23.52
2019-04-06T07:17:49.354Z,23.87
2019-04-06T07:20:18.280Z,22.30
2019-04-06T07:22:48.897Z,23.38
2019-04-06T07:25:17.507Z,24.20
2019-04-06T07:27:45.987Z,24.25
2019-04-06T07:30:14.697Z,25.08
2019-04-06T07:32:43.321Z,22.62
2019-04-06T07:35:12.050Z,22.25
2019-04-06T07:37:40.826Z,19.90
2019-04-06T07:40:09.802Z,19.95
2019-04-06T07:42:38.323Z,23.75
2019-04-06T07:45:10.291Z,18.07
2019-04-06T07:47:39.280Z,49.03
2019-04-06T07:50:09.051Z,47.00
2019-04-06T07:52:37.768Z,34.48
2019-04-06T07:55:09.539Z,24.25
2019-04-06T07:57:38.169Z,19.90
2019-04-06T08:00:10.310Z,16.45
2019-04-06T08:02:38.947Z,15.45
2019-04-06T08:05:08.031Z,15.25
2019-04-06T08:07:36.677Z,16.05
2019-04-06T08:10:07.135Z,15.58
2019-04-06T08:12:35.760Z,14.80
2019-04-06T08:15:06.856Z,13.72
2019-04-06T08:17:35.482Z,14.98
2019-04-06T08:20:08.715Z,16.77
2019-04-06T08:22:37.358Z,16.55
2019-04-06T08:25:08.065Z,16.27
2019-04-06T08:27:36.835Z,15.78
2019-04-06T08:30:12.765Z,14.63
2019-04-06T08:32:41.411Z,15.60
2019-04-06T08:35:10.082Z,15.43
2019-04-06T08:37:38.927Z,16.15
2019-04-06T08:40:08.325Z,14.60
2019-04-06T08:42:37.062Z,15.50
2019-04-06T08:45:07.518Z,14.45
2019-04-06T08:47:38.312Z,16.00
2019-04-06T08:50:08.202Z,15.15
2019-04-06T08:52:36.759Z,16.37
2019-04-06T08:55:07.153Z,15.18
2019-04-06T08:57:36.074Z,14.07
2019-04-06T09:00:07.162Z,15.25
2019-04-06T09:02:36.295Z,15.30
2019-04-06T09:05:10.944Z,16.50
2019-04-06T09:07:40.926Z,16.37
2019-04-06T09:10:09.963Z,15.88
2019-04-06T09:12:38.732Z,15.95
2019-04-06T09:15:10.140Z,16.57
2019-04-06T09:17:38.682Z,17.60
2019-04-06T09:20:08.399Z,16.50
2019-04-06T09:22:37.039Z,16.17
2019-04-06T09:25:07.362Z,16.17
2019-04-06T09:27:36.019Z,16.80
2019-04-06T09:30:07.436Z,17.40
2019-04-06T09:32:35.903Z,16.12
2019-04-06T09:35:05.428Z,17.67
2019-04-06T09:37:34.029Z,17.32
2019-04-06T09:40:02.964Z,16.85
2019-04-06T09:42:31.685Z,17.17
2019-04-06T09:45:17.839Z,17.12
2019-04-06T09:48:00.272Z,15.85
2019-04-06T09:50:39.125Z,16.70
2019-04-06T09:53:18.370Z,17.82
2019-04-06T09:55:51.637Z,16.57
2019-04-06T09:58:38.226Z,16.87
2019-04-06T10:01:14.485Z,16.75
2019-04-06T10:03:59.943Z,16.37
2019-04-06T10:06:45.061Z,18.37
2019-04-06T10:09:15.321Z,17.45
2019-04-06T10:12:04.535Z,17.07
2019-04-06T10:14:53.020Z,16.95
2019-04-06T10:17:32.387Z,16.85
2019-04-06T10:20:11.908Z,18.17
2019-04-06T10:22:54.371Z,17.77
2019-04-06T10:25:24.677Z,18.35
2019-04-06T10:28:00.895Z,17.52
2019-04-06T10:30:31.227Z,17.98
2019-04-06T10:33:07.153Z,18.45
2019-04-06T10:35:48.547Z,19.07
2019-04-06T10:38:27.456Z,19.85
2019-04-06T10:40:57.641Z,17.50
2019-04-06T10:43:39.879Z,19.65
2019-04-06T10:46:22.313Z,18.27
2019-04-06T10:48:52.440Z,20.50
2019-04-06T10:51:22.794Z,17.57
2019-04-06T10:54:07.921Z,18.45
2019-04-06T10:56:44.137Z,14.25
2019-04-06T10:59:30.762Z,13.83
2019-04-06T11:02:04.064Z,13.53
2019-04-06T11:04:34.323Z,16.00
2019-04-06T11:07:21.170Z,17.10
2019-04-06T11:09:54.291Z,18.55
2019-04-06T11:12:36.751Z,17.40
2019-04-06T11:15:24.364Z,15.38
2019-04-06T11:18:09.906Z,18.35
2019-04-06T11:20:44.320Z,19.87
2019-04-06T11:23:20.580Z,20.65
2019-04-06T11:25:50.873Z,20.10
2019-04-06T11:28:21.262Z,19.15
2019-04-06T11:30:51.487Z,25.97
2019-04-06T11:33:22.000Z,17.20
2019-04-06T11:36:10.339Z,17.30
2019-04-06T11:38:49.632Z,17.05
2019-04-06T11:41:22.720Z,17.02
2019-04-06T11:43:58.821Z,17.12
2019-04-06T11:46:35.122Z,17.92
2019-04-06T11:49:08.037Z,15.55
2019-04-06T11:51:47.369Z,14.38
2019-04-06T11:54:20.578Z,15.93
2019-04-06T11:56:56.670Z,15.55
2019-04-06T11:59:28.342Z,14.87
2019-04-06T12:01:58.894Z,14.85
2019-04-06T12:04:29.230Z,14.58
2019-04-06T12:07:15.603Z,14.70
2019-04-06T12:09:48.342Z,13.93
2019-04-06T12:12:35.059Z,15.80
2019-04-06T12:15:07.853Z,18.77
2019-04-06T12:17:57.676Z,17.50
2019-04-06T12:20:28.204Z,17.62
2019-04-06T12:22:58.839Z,16.15
2019-04-06T12:25:38.056Z,15.75
2019-04-06T12:28:23.740Z,16.12
2019-04-06T12:31:09.878Z,15.55
2019-04-06T12:33:56.677Z,16.48
2019-04-06T12:36:29.771Z,16.50
2019-04-06T12:39:16.109Z,15.58
2019-04-06T12:41:46.222Z,15.53
2019-04-06T12:44:32.396Z,16.70
2019-04-06T12:47:19.050Z,20.27
2019-04-06T12:49:58.462Z,18.67
2019-04-06T12:52:31.333Z,18.05
2019-04-06T12:55:13.853Z,17.17
2019-04-06T12:57:44.042Z,18.62
2019-04-06T13:00:30.886Z,18.27
2019-04-06T13:03:01.305Z,15.98
2019-04-06T13:05:43.389Z,15.98
2019-04-06T13:08:16.702Z,17.00
2019-04-06T13:10:58.797Z,15.65
2019-04-06T13:13:41.233Z,16.52
2019-04-06T13:16:14.275Z,18.67
2019-04-06T13:19:02.766Z,19.52
2019-04-06T13:21:49.453Z,20.00
2019-04-06T13:24:23.048Z,19.32
2019-04-06T13:26:53.420Z,25.70
2019-04-06T13:29:26.061Z,30.50
2019-04-06T13:31:59.265Z,22.65
2019-04-06T13:34:44.476Z,22.30
2019-04-06T13:37:23.548Z,21.17
2019-04-06T13:39:53.991Z,19.57
2019-04-06T13:42:30.357Z,20.37
2019-04-06T13:45:03.196Z,20.25
2019-04-06T13:47:33.567Z,20.25
2019-04-06T13:50:09.699Z,21.00
2019-04-06T13:52:45.855Z,21.10
2019-04-06T13:55:31.904Z,19.48
2019-04-06T13:58:08.077Z,18.37
2019-04-06T14:00:44.546Z,20.72
2019-04-06T14:03:23.899Z,19.87
2019-04-06T14:06:10.640Z,20.05
2019-04-06T14:08:40.827Z,24.12
2019-04-06T14:11:14.237Z,33.80
2019-04-06T14:13:47.684Z,29.35
2019-04-06T14:16:34.450Z,35.35
2019-04-06T14:19:04.837Z,31.82
2019-04-06T14:21:44.075Z,31.40
2019-04-06T14:24:17.569Z,29.07
2019-04-06T14:27:00.056Z,27.15
2019-04-06T14:29:48.377Z,29.48
2019-04-06T14:32:35.366Z,33.33
2019-04-06T14:35:23.454Z,33.92
2019-04-06T14:37:53.772Z,34.95
2019-04-06T14:40:40.388Z,35.10
2019-04-06T14:43:16.127Z,26.17
2019-04-06T14:45:49.014Z,25.40
2019-04-06T14:48:35.718Z,24.43
2019-04-06T14:51:21.245Z,23.25
2019-04-06T14:53:51.386Z,22.67
2019-04-06T14:56:28.032Z,23.15
2019-04-06T14:58:59.017Z,20.30
2019-04-06T15:01:56.979Z,21.75
2019-04-06T15:04:19.300Z,24.30
2019-04-06T15:06:49.604Z,26.77
2019-04-06T15:09:20.178Z,26.52
2019-04-06T15:11:59.582Z,24.57
2019-04-06T15:14:36.091Z,22.02
2019-04-06T15:17:09.007Z,20.48
2019-04-06T15:19:54.235Z,18.75
2019-04-06T15:22:27.496Z,21.10
2019-04-06T15:25:16.063Z,21.73
2019-04-06T15:27:54.723Z,19.77
2019-04-06T15:30:24.975Z,19.40
2019-04-06T15:32:55.090Z,19.90
2019-04-06T15:35:34.452Z,19.65
2019-04-06T15:38:04.794Z,22.13
2019-04-06T15:40:38.190Z,23.67
2019-04-06T15:43:14.454Z,23.55
2019-04-06T15:45:47.385Z,23.92
2019-04-06T15:48:17.600Z,24.85
2019-04-06T15:50:53.836Z,23.22
2019-04-06T15:53:36.417Z,21.80
2019-04-06T15:56:12.578Z,21.27
2019-04-06T15:58:55.010Z,22.05
2019-04-06T16:01:25.413Z,22.50
2019-04-06T16:03:55.594Z,21.93
2019-04-06T16:06:25.860Z,22.10
2019-04-06T16:09:14.215Z,24.60
2019-04-06T16:11:56.487Z,24.77
2019-04-06T16:14:35.756Z,22.45
2019-04-06T16:17:22.054Z,24.37
2019-04-06T16:19:55.890Z,24.95
2019-04-06T16:22:26.591Z,27.73
2019-04-06T16:24:59.678Z,30.55
2019-04-06T16:27:32.679Z,33.08
2019-04-06T16:30:05.610Z,31.93
2019-04-06T16:32:47.470Z,26.80
2019-04-06T16:35:29.880Z,25.68
2019-04-06T16:38:18.129Z,25.37
2019-04-06T16:40:51.236Z,25.02
2019-04-06T16:43:34.039Z,33.80
2019-04-06T16:46:16.547Z,34.63
2019-04-06T16:48:52.420Z,30.30
2019-04-06T16:51:22.804Z,25.95
2019-04-06T16:54:09.346Z,23.10
2019-04-06T16:56:45.544Z,22.52
2019-04-06T16:59:15.772Z,22.27
2019-04-06T17:02:02.314Z,22.00
2019-04-06T17:04:35.267Z,23.95
2019-04-06T17:07:08.652Z,28.23
2019-04-06T17:09:44.396Z,29.48
2019-04-06T17:12:15.308Z,26.45
2019-04-06T17:14:48.196Z,25.20
2019-04-06T17:17:34.806Z,25.20
2019-04-06T17:20:12.483Z,24.55
2019-04-06T17:22:45.496Z,24.23
2019-04-06T17:25:21.475Z,23.67
2019-04-06T17:27:52.299Z,24.50
2019-04-06T17:30:31.551Z,24.57
2019-04-06T17:33:18.575Z,24.63
2019-04-06T17:36:05.214Z,26.77
2019-04-06T17:38:51.639Z,25.85
2019-04-06T17:41:21.813Z,26.25
2019-04-06T17:44:03.855Z,28.32
2019-04-06T17:46:34.043Z,27.48
2019-04-06T17:49:06.990Z,28.10
2019-04-06T17:51:37.294Z,31.82
2019-04-06T17:54:07.732Z,31.52
2019-04-06T17:56:46.781Z,34.05
2019-04-06T17:59:32.861Z,29.30
2019-04-06T18:02:09.320Z,28.70
2019-04-06T18:04:39.507Z,31.42
2019-04-06T18:07:15.803Z,31.10
2019-04-06T18:10:02.467Z,28.15
2019-04-06T18:12:35.471Z,32.10
2019-04-06T18:15:06.227Z,29.95
2019-04-06T18:17:34.880Z,27.37
2019-04-06T18:20:04.920Z,27.60
2019-04-06T18:22:34.294Z,26.52
2019-04-06T18:25:03.421Z,26.62
2019-04-06T18:27:32.048Z,27.02
2019-04-06T18:30:01.067Z,27.25
2019-04-06T18:32:59.697Z,26.00
2019-04-06T18:35:19.823Z,24.52
2019-04-06T18:37:52.733Z,23.70
2019-04-06T18:40:22.975Z,24.57
2019-04-06T18:42:52.946Z,30.70
2019-04-06T18:45:21.952Z,30.37
2019-04-06T18:47:50.836Z,28.55
2019-04-06T18:50:20.133Z,34.40
2019-04-06T18:52:48.754Z,39.70
2019-04-06T18:55:17.771Z,36.70
2019-04-06T18:57:46.955Z,36.50
2019-04-06T19:00:17.901Z,39.55
2019-04-06T19:02:46.514Z,37.33
2019-04-06T19:05:16.263Z,37.65
2019-04-06T19:07:44.904Z,46.63
2019-04-06T19:10:13.719Z,55.43
2019-04-06T19:12:42.798Z,55.20
2019-04-06T19:15:13.679Z,45.70
2019-04-06T19:17:42.810Z,42.27
2019-04-06T19:20:12.279Z,40.58
2019-04-06T19:22:41.020Z,43.10
2019-04-06T19:25:10.468Z,43.70
2019-04-06T19:27:39.321Z,45.78
2019-04-06T19:30:10.191Z,43.52
2019-04-06T19:32:39.066Z,42.50
2019-04-06T19:35:08.985Z,36.88
2019-04-06T19:37:37.638Z,34.45
2019-04-06T19:40:07.913Z,33.48
2019-04-06T19:42:36.559Z,33.70
2019-04-06T19:45:08.390Z,35.90
2019-04-06T19:47:37.040Z,35.00
2019-04-06T19:50:08.216Z,34.05
2019-04-06T19:52:37.021Z,33.75
2019-04-06T19:55:07.760Z,36.08
2019-04-06T19:57:36.311Z,34.50
2019-04-06T20:00:06.909Z,31.65
2019-04-06T20:02:35.753Z,27.37
2019-04-06T20:05:07.396Z,25.90
2019-04-06T20:07:35.930Z,31.97
2019-04-06T20:10:06.285Z,29.45
2019-04-06T20:12:34.862Z,31.70
2019-04-06T20:15:04.895Z,38.20
2019-04-06T20:17:33.431Z,38.73
2019-04-06T20:20:02.021Z,38.73
2019-04-06T20:22:30.560Z,41.28
2019-04-06T20:24:59.162Z,39.18
2019-04-06T20:27:28.544Z,37.60
2019-04-06T20:29:57.762Z,35.70
2019-04-06T20:32:26.396Z,41.73
2019-04-06T20:34:54.994Z,38.73
2019-04-06T20:37:23.465Z,35.08
2019-04-06T20:39:52.451Z,38.98
2019-04-06T20:42:21.214Z,41.10
2019-04-06T20:44:49.831Z,47.80
2019-04-06T20:47:18.948Z,46.35
2019-04-06T20:49:47.889Z,45.92
2019-04-06T20:52:16.501Z,48.83
2019-04-06T20:54:45.218Z,46.85
2019-04-06T20:57:14.852Z,47.15
2019-04-06T20:59:43.824Z,51.53
2019-04-06T21:02:12.520Z,52.62
2019-04-06T21:04:41.327Z,44.53
2019-04-06T21:07:09.896Z,53.28
2019-04-06T21:09:38.511Z,45.28
2019-04-06T21:12:07.119Z,43.10
2019-04-06T21:14:36.211Z,46.55
2019-04-06T21:17:04.991Z,50.20
2019-04-06T21:19:34.013Z,50.43
2019-04-06T21:22:03.004Z,52.30
2019-04-06T21:24:31.737Z,51.42
2019-04-06T21:27:00.433Z,48.45
2019-04-06T21:29:29.041Z,43.15
2019-04-06T21:31:57.579Z,42.10
2019-04-06T21:34:26.236Z,43.30
2019-04-06T21:36:56.469Z,40.88
2019-04-06T21:39:25.065Z,46.00
2019-04-06T21:41:54.251Z,45.78
2019-04-06T21:44:23.046Z,39.38
2019-04-06T21:46:51.695Z,38.50
2019-04-06T21:49:20.227Z,37.75
2019-04-06T21:51:48.961Z,50.98
2019-04-06T21:54:17.632Z,37.42
2019-04-06T21:56:46.784Z,34.83
2019-04-06T21:59:16.769Z,31.75
2019-04-06T22:01:46.709Z,32.00
2019-04-06T22:04:23.708Z,31.70
2019-04-06T22:06:46.086Z,32.60
2019-04-06T22:09:15.295Z,32.15
2019-04-06T22:11:43.905Z,35.63
2019-04-06T22:14:12.560Z,32.80
2019-04-06T22:16:41.796Z,34.58
2019-04-06T22:19:11.143Z,32.90
2019-04-06T22:21:39.929Z,29.45
2019-04-06T22:24:09.554Z,28.23
2019-04-06T22:26:38.316Z,28.10
2019-04-06T22:29:06.927Z,32.53
2019-04-06T22:31:35.902Z,32.67
2019-04-06T22:34:04.961Z,32.65
2019-04-06T22:36:33.536Z,28.17
2019-04-06T22:39:02.201Z,25.15
2019-04-06T22:41:31.130Z,25.72
2019-04-06T22:43:59.899Z,27.07
2019-04-06T22:46:28.519Z,27.17
2019-04-06T22:48:57.484Z,25.17
2019-04-06T22:51:26.424Z,26.00
2019-04-06T22:53:55.679Z,27.82
2019-04-06T22:56:24.876Z,27.17
2019-04-06T22:58:53.654Z,26.17
2019-04-06T23:01:24.538Z,25.05
2019-04-06T23:04:06.482Z,26.55
2019-04-06T23:06:36.923Z,26.95
2019-04-06T23:09:08.065Z,31.02
2019-04-06T23:11:36.690Z,34.45
2019-04-06T23:14:05.603Z,33.10
2019-04-06T23:16:34.418Z,30.30
2019-04-06T23:19:03.115Z,29.15
2019-04-06T23:21:31.716Z,28.87
2019-04-06T23:24:03.031Z,26.45
2019-04-06T23:26:30.693Z,28.85
2019-04-06T23:28:59.698Z,26.50
2019-04-06T23:31:28.334Z,29.87
2019-04-06T23:33:57.283Z,28.73
2019-04-06T23:36:26.110Z,26.95
2019-04-06T23:38:54.930Z,30.95
2019-04-06T23:41:23.469Z,29.20
2019-04-06T23:43:52.072Z,28.10
2019-04-06T23:46:20.700Z,27.25
2019-04-06T23:48:49.857Z,25.95
2019-04-06T23:51:18.846Z,25.62
2019-04-06T23:53:48.083Z,25.30
2019-04-06T23:56:17.098Z,27.67
2019-04-06T23:58:47.050Z,26.57
